createdAt,value
2024-02-21T00:01:33.754Z,6.50
2024-02-21T00:04:00.139Z,5.07
2024-02-21T00:06:26.491Z,4.75
2024-02-21T00:08:53.110Z,5.47
2024-02-21T00:11:19.563Z,5.43
2024-02-21T00:13:45.964Z,4.75
2024-02-21T00:16:12.607Z,4.47
2024-02-21T00:18:39.295Z,4.70
2024-02-21T00:21:05.858Z,4.97
2024-02-21T00:23:32.430Z,6.18
2024-02-21T00:25:58.877Z,6.63
2024-02-21T00:28:25.874Z,5.45
2024-02-21T00:30:52.255Z,5.35
2024-02-21T00:33:18.887Z,5.13
2024-02-21T00:35:45.547Z,4.95
2024-02-21T00:38:12.119Z,6.07
2024-02-21T00:40:38.694Z,5.53
2024-02-21T00:43:05.324Z,5.95
2024-02-21T00:45:31.639Z,6.45
2024-02-21T00:47:58.233Z,4.88
2024-02-21T00:50:24.654Z,6.57
2024-02-21T00:52:50.999Z,5.68
2024-02-21T00:55:17.633Z,5.38
2024-02-21T00:57:43.969Z,5.15
2024-02-21T01:00:10.774Z,6.45
2024-02-21T01:02:37.568Z,6.10
2024-02-21T01:05:04.317Z,6.00
2024-02-21T01:07:30.739Z,7.18
2024-02-21T01:09:57.234Z,6.50
2024-02-21T01:12:23.889Z,6.53
2024-02-21T01:14:50.981Z,6.40
2024-02-21T01:17:17.512Z,6.10
2024-02-21T01:19:44.095Z,5.60
2024-02-21T01:22:10.422Z,6.22
2024-02-21T01:24:36.999Z,7.88
2024-02-21T01:27:03.526Z,6.80
2024-02-21T01:29:29.871Z,6.90
2024-02-21T01:31:56.471Z,6.05
2024-02-21T01:34:23.316Z,5.82
2024-02-21T01:36:50.225Z,5.97
2024-02-21T01:39:16.799Z,5.28
2024-02-21T01:41:43.467Z,6.18
2024-02-21T01:44:10.076Z,6.43
2024-02-21T01:46:36.790Z,6.57
2024-02-21T01:49:03.521Z,5.50
2024-02-21T01:51:29.968Z,7.05
2024-02-21T01:53:56.568Z,6.13
2024-02-21T01:56:23.713Z,5.35
2024-02-21T01:58:50.533Z,5.88
2024-02-21T02:01:21.416Z,6.03
2024-02-21T02:03:49.474Z,5.28
2024-02-21T02:06:16.350Z,5.40
2024-02-21T02:08:43.010Z,5.85
2024-02-21T02:11:09.621Z,5.60
2024-02-21T02:13:36.055Z,7.00
2024-02-21T02:16:02.690Z,4.65
2024-02-21T02:18:31.522Z,5.57
2024-02-21T02:20:58.380Z,5.55
2024-02-21T02:23:26.148Z,4.60
2024-02-21T02:25:52.654Z,5.45
2024-02-21T02:28:19.260Z,5.07
2024-02-21T02:30:45.850Z,5.22
2024-02-21T02:33:12.506Z,5.28
2024-02-21T02:35:39.004Z,5.03
2024-02-21T02:38:05.795Z,5.47
2024-02-21T02:40:32.748Z,6.40
2024-02-21T02:42:59.346Z,5.60
2024-02-21T02:45:25.975Z,4.82
2024-02-21T02:47:52.654Z,5.15
2024-02-21T02:50:19.063Z,5.25
2024-02-21T02:52:45.673Z,6.25
2024-02-21T02:55:12.074Z,5.70
2024-02-21T02:57:40.577Z,6.45
2024-02-21T03:00:07.414Z,5.05
2024-02-21T03:02:33.958Z,5.82
2024-02-21T03:05:00.355Z,5.60
2024-02-21T03:07:27.136Z,5.70
2024-02-21T03:09:53.714Z,4.72
2024-02-21T03:12:20.260Z,5.07
2024-02-21T03:14:46.837Z,6.15
2024-02-21T03:17:13.392Z,5.25
2024-02-21T03:19:40.050Z,5.85
2024-02-21T03:22:06.819Z,4.95
2024-02-21T03:24:33.385Z,6.13
2024-02-21T03:26:59.883Z,5.13
2024-02-21T03:29:26.501Z,4.65
2024-02-21T03:31:53.272Z,5.35
2024-02-21T03:34:20.023Z,5.90
2024-02-21T03:36:46.761Z,6.03
2024-02-21T03:39:13.311Z,5.40
2024-02-21T03:41:39.896Z,6.03
2024-02-21T03:44:07.205Z,5.53
2024-02-21T03:46:33.812Z,6.05
2024-02-21T03:49:00.382Z,5.90
2024-02-21T03:51:26.701Z,5.55
2024-02-21T03:53:53.277Z,5.13
2024-02-21T03:56:19.852Z,4.82
2024-02-21T03:58:46.448Z,5.40
2024-02-21T04:01:12.932Z,4.93
2024-02-21T04:03:39.551Z,5.72
2024-02-21T04:06:06.191Z,5.22
2024-02-21T04:08:32.768Z,4.82
2024-02-21T04:10:59.162Z,5.10
2024-02-21T04:13:26.320Z,4.70
2024-02-21T04:15:53.149Z,5.93
2024-02-21T04:18:19.686Z,5.85
2024-02-21T04:20:46.048Z,5.75
2024-02-21T04:23:12.578Z,5.07
2024-02-21T04:25:39.157Z,5.05
2024-02-21T04:28:05.679Z,5.03
2024-02-21T04:30:32.220Z,5.53
2024-02-21T04:32:58.819Z,5.82
2024-02-21T04:35:25.878Z,5.10
2024-02-21T04:37:52.470Z,5.82
2024-02-21T04:40:18.844Z,5.63
2024-02-21T04:42:45.173Z,6.43
2024-02-21T04:45:11.727Z,5.35
2024-02-21T04:47:38.107Z,4.57
2024-02-21T04:50:05.023Z,5.30
2024-02-21T04:52:31.441Z,5.15
2024-02-21T04:54:57.812Z,5.60
2024-02-21T04:57:24.368Z,4.80
2024-02-21T04:59:50.941Z,5.72
2024-02-21T05:02:17.309Z,5.05
2024-02-21T05:04:43.920Z,5.18
2024-02-21T05:07:10.549Z,4.57
2024-02-21T05:09:37.204Z,4.90
2024-02-21T05:12:03.973Z,5.00
2024-02-21T05:14:30.567Z,5.82
2024-02-21T05:16:57.187Z,7.00
2024-02-21T05:19:23.641Z,5.25
2024-02-21T05:21:50.234Z,8.80
2024-02-21T05:24:16.561Z,5.07
2024-02-21T05:26:42.870Z,6.72
2024-02-21T05:29:09.485Z,5.07
2024-02-21T05:31:54.495Z,5.80
2024-02-21T05:34:21.159Z,5.00
2024-02-21T05:36:47.857Z,5.45
2024-02-21T05:39:14.558Z,5.43
2024-02-21T05:41:41.084Z,5.10
2024-02-21T05:44:08.279Z,5.97
2024-02-21T05:46:34.985Z,4.90
2024-02-21T05:49:01.597Z,5.63
2024-02-21T05:51:28.041Z,5.60
2024-02-21T05:53:55.260Z,5.00
2024-02-21T05:56:21.548Z,4.70
2024-02-21T05:58:47.893Z,5.25
2024-02-21T06:01:14.590Z,5.03
2024-02-21T06:03:41.306Z,4.35
2024-02-21T06:06:07.708Z,4.63
2024-02-21T06:08:33.993Z,5.20
2024-02-21T06:11:00.626Z,6.00
2024-02-21T06:13:27.494Z,5.82
2024-02-21T06:15:54.130Z,6.45
2024-02-21T06:18:21.228Z,5.35
2024-02-21T06:20:48.144Z,4.50
2024-02-21T06:23:16.553Z,4.90
2024-02-21T06:25:43.284Z,4.78
2024-02-21T06:28:10.006Z,5.43
2024-02-21T06:30:36.895Z,4.20
2024-02-21T06:33:03.638Z,5.47
2024-02-21T06:35:30.336Z,4.85
2024-02-21T06:37:56.715Z,5.90
2024-02-21T06:40:24.221Z,5.38
2024-02-21T06:42:51.346Z,3.83
2024-02-21T06:45:17.908Z,4.10
2024-02-21T06:47:44.545Z,4.40
2024-02-21T06:50:11.197Z,5.15
2024-02-21T06:52:37.663Z,4.57
2024-02-21T06:55:04.492Z,4.72
2024-02-21T06:57:31.060Z,4.05
2024-02-21T06:59:57.610Z,4.63
2024-02-21T07:02:24.357Z,4.50
2024-02-21T07:04:52.707Z,5.90
2024-02-21T07:07:19.477Z,4.80
2024-02-21T07:09:46.184Z,4.47
2024-02-21T07:12:12.525Z,4.80
2024-02-21T07:14:39.119Z,3.67
2024-02-21T07:17:05.662Z,4.80
2024-02-21T07:19:32.318Z,4.80
2024-02-21T07:21:58.965Z,9.88
2024-02-21T07:24:25.260Z,4.00
2024-02-21T07:26:51.533Z,4.45
2024-02-21T07:29:17.860Z,4.50
2024-02-21T07:31:44.717Z,3.90
2024-02-21T07:34:11.450Z,4.43
2024-02-21T07:36:38.654Z,4.22
2024-02-21T07:39:05.020Z,4.50
2024-02-21T07:41:31.334Z,4.47
2024-02-21T07:43:57.891Z,4.78
2024-02-21T07:46:24.558Z,4.53
2024-02-21T07:48:54.658Z,5.15
2024-02-21T07:51:21.052Z,5.03
2024-02-21T07:53:47.575Z,3.95
2024-02-21T07:56:14.617Z,7.57
2024-02-21T07:58:41.481Z,4.38
2024-02-21T08:01:08.128Z,5.70
2024-02-21T08:03:34.815Z,4.75
2024-02-21T08:06:01.390Z,4.80
2024-02-21T08:08:27.986Z,4.28
2024-02-21T08:10:54.962Z,5.50
2024-02-21T08:13:21.346Z,4.90
2024-02-21T08:15:47.912Z,5.43
2024-02-21T08:18:14.700Z,5.25
2024-02-21T08:20:41.071Z,4.53
2024-02-21T08:23:09.196Z,5.07
2024-02-21T08:25:35.639Z,4.05
2024-02-21T08:28:02.258Z,4.60
2024-02-21T08:30:28.624Z,4.60
2024-02-21T08:32:55.454Z,4.18
2024-02-21T08:35:22.336Z,5.05
2024-02-21T08:37:49.220Z,4.78
2024-02-21T08:40:15.899Z,5.28
2024-02-21T08:42:42.294Z,5.35
2024-02-21T08:45:09.248Z,5.55
2024-02-21T08:47:35.845Z,4.97
2024-02-21T08:50:14.469Z,4.38
2024-02-21T08:52:45.970Z,4.60
2024-02-21T08:55:12.305Z,6.20
2024-02-21T08:57:38.646Z,4.20
2024-02-21T09:00:06.323Z,4.45
2024-02-21T09:05:01.514Z,4.97
2024-02-21T09:07:28.163Z,4.82
2024-02-21T09:09:54.742Z,4.55
2024-02-21T09:12:21.288Z,5.28
2024-02-21T09:14:48.077Z,3.70
2024-02-21T09:17:14.650Z,5.70
2024-02-21T09:19:41.049Z,4.05
2024-02-21T09:22:07.394Z,3.85
2024-02-21T09:24:33.938Z,4.10
2024-02-21T09:27:00.472Z,3.28
2024-02-21T09:29:28.049Z,4.00
2024-02-21T09:31:54.665Z,4.35
2024-02-21T09:34:21.452Z,5.28
2024-02-21T09:36:47.954Z,4.10
2024-02-21T09:39:14.509Z,4.10
2024-02-21T09:41:46.513Z,4.28
2024-02-21T09:44:14.206Z,4.55
2024-02-21T09:46:53.057Z,2.97
2024-02-21T09:49:19.591Z,5.38
2024-02-21T09:51:47.243Z,3.88
2024-02-21T09:56:43.486Z,3.92
2024-02-21T09:59:10.624Z,3.78
2024-02-21T10:01:37.147Z,3.25
2024-02-21T10:04:03.791Z,3.75
2024-02-21T10:06:30.481Z,4.10
2024-02-21T10:09:00.042Z,4.15
2024-02-21T10:11:27.158Z,3.95
2024-02-21T10:14:04.012Z,3.63
2024-02-21T10:16:30.687Z,4.07
2024-02-21T10:18:57.145Z,4.20
2024-02-21T10:21:23.442Z,4.70
2024-02-21T10:23:50.253Z,3.25
2024-02-21T10:26:17.354Z,4.07
2024-02-21T10:28:44.182Z,3.60
2024-02-21T10:31:12.534Z,4.25
2024-02-21T10:33:39.492Z,3.35
2024-02-21T10:36:09.546Z,3.33
2024-02-21T10:38:36.848Z,3.45
2024-02-21T10:41:04.004Z,2.95
2024-02-21T10:43:32.085Z,4.35
2024-02-21T10:46:02.130Z,2.75
2024-02-21T10:48:35.039Z,4.70
2024-02-21T10:51:03.256Z,3.45
2024-02-21T10:53:41.017Z,3.88
2024-02-21T10:56:27.618Z,3.85
2024-02-21T10:58:54.396Z,4.15
2024-02-21T11:01:21.998Z,3.67
2024-02-21T11:03:50.183Z,3.00
2024-02-21T11:06:18.126Z,2.88
2024-02-21T11:08:44.675Z,3.10
2024-02-21T11:11:24.032Z,3.55
2024-02-21T11:14:06.701Z,3.70
2024-02-21T11:16:36.448Z,3.58
2024-02-21T11:19:21.779Z,4.40
2024-02-21T11:21:48.700Z,3.72
2024-02-21T11:24:15.976Z,3.40
2024-02-21T11:26:42.513Z,2.53
2024-02-21T11:29:09.286Z,4.00
2024-02-21T11:31:43.128Z,3.88
2024-02-21T11:34:10.421Z,3.50
2024-02-21T11:36:36.994Z,3.75
2024-02-21T11:39:06.320Z,3.05
2024-02-21T11:41:33.062Z,3.97
2024-02-21T11:43:59.816Z,3.53
2024-02-21T11:46:26.240Z,3.17
2024-02-21T11:48:52.882Z,4.97
2024-02-21T11:51:23.322Z,3.00
2024-02-21T11:53:57.340Z,3.40
2024-02-21T11:56:28.170Z,3.67
2024-02-21T11:58:54.448Z,2.80
2024-02-21T12:01:20.907Z,3.35
2024-02-21T12:03:47.671Z,2.65
2024-02-21T12:06:14.377Z,2.83
2024-02-21T12:08:44.137Z,4.68
2024-02-21T12:11:18.789Z,3.22
2024-02-21T12:13:45.359Z,2.50
2024-02-21T12:16:11.893Z,4.15
2024-02-21T12:18:40.220Z,3.78
2024-02-21T12:21:06.785Z,2.70
2024-02-21T12:23:33.323Z,3.60
2024-02-21T12:26:00.242Z,3.10
2024-02-21T12:28:26.845Z,2.78
2024-02-21T12:30:53.412Z,2.38
2024-02-21T12:33:20.155Z,2.70
2024-02-21T12:35:46.615Z,2.60
2024-02-21T12:38:13.054Z,2.90
2024-02-21T12:40:39.931Z,3.05
2024-02-21T12:43:06.517Z,2.88
2024-02-21T12:45:33.125Z,3.47
2024-02-21T12:47:59.471Z,3.13
2024-02-21T12:50:25.806Z,2.70
2024-02-21T12:52:52.258Z,2.03
2024-02-21T12:55:19.006Z,3.35
2024-02-21T12:57:45.425Z,3.55
2024-02-21T13:00:12.133Z,2.60
2024-02-21T13:02:41.707Z,3.85
2024-02-21T13:05:08.069Z,3.20
2024-02-21T13:07:34.618Z,4.13
2024-02-21T13:10:01.320Z,3.08
2024-02-21T13:12:28.379Z,2.90
2024-02-21T13:14:54.689Z,3.28
2024-02-21T13:17:21.103Z,2.25
2024-02-21T13:19:47.550Z,2.83
2024-02-21T13:22:14.769Z,3.08
2024-02-21T13:24:41.333Z,3.40
2024-02-21T13:27:08.389Z,2.67
2024-02-21T13:29:34.719Z,2.95
2024-02-21T13:32:01.192Z,2.42
2024-02-21T13:34:28.019Z,2.50
2024-02-21T13:36:54.673Z,2.95
2024-02-21T13:39:21.294Z,2.78
2024-02-21T13:41:47.619Z,2.83
2024-02-21T13:44:14.274Z,3.10
2024-02-21T13:46:40.887Z,3.35
2024-02-21T13:49:07.651Z,2.90
2024-02-21T13:51:34.949Z,2.92
2024-02-21T13:54:01.553Z,2.88
2024-02-21T13:56:28.092Z,3.58
2024-02-21T13:58:54.721Z,2.20
2024-02-21T14:01:21.137Z,2.30
2024-02-21T14:03:47.559Z,3.83
2024-02-21T14:06:14.682Z,2.63
2024-02-21T14:08:41.284Z,3.65
2024-02-21T14:11:08.912Z,4.32
2024-02-21T14:16:01.887Z,2.22
2024-02-21T14:18:29.330Z,4.15
2024-02-21T14:20:55.732Z,2.95
2024-02-21T14:23:22.248Z,2.58
2024-02-21T14:25:48.994Z,3.08
2024-02-21T14:28:16.692Z,2.28
2024-02-21T14:30:44.387Z,3.05
2024-02-21T14:33:11.217Z,2.35
2024-02-21T14:35:37.923Z,3.10
2024-02-21T14:38:04.439Z,2.45
2024-02-21T14:40:30.834Z,2.28
2024-02-21T14:42:57.252Z,2.45
2024-02-21T14:45:25.042Z,2.95
2024-02-21T14:47:51.403Z,3.33
2024-02-21T14:50:18.021Z,2.70
2024-02-21T14:52:44.622Z,2.78
2024-02-21T14:55:11.193Z,3.13
2024-02-21T14:57:37.784Z,2.60
2024-02-21T15:00:04.654Z,2.70
2024-02-21T15:02:31.281Z,2.63
2024-02-21T15:04:57.930Z,3.38
2024-02-21T15:07:24.654Z,2.10
2024-02-21T15:09:51.421Z,3.40
2024-02-21T15:12:17.968Z,2.67
2024-02-21T15:14:44.646Z,2.90
2024-02-21T15:17:14.391Z,3.25
2024-02-21T15:19:41.242Z,3.65
2024-02-21T15:22:08.433Z,3.28
2024-02-21T15:24:34.714Z,2.67
2024-02-21T15:27:01.050Z,3.90
2024-02-21T15:29:28.738Z,2.80
2024-02-21T15:31:55.070Z,2.97
2024-02-21T15:34:21.573Z,2.13
2024-02-21T15:36:48.294Z,3.53
2024-02-21T15:39:14.969Z,2.25
2024-02-21T15:41:41.607Z,3.13
2024-02-21T15:44:07.971Z,2.72
2024-02-21T15:46:34.647Z,2.40
2024-02-21T15:49:01.688Z,3.10
2024-02-21T15:51:28.402Z,2.10
2024-02-21T15:53:54.932Z,3.40
2024-02-21T15:56:21.287Z,3.58
2024-02-21T15:58:47.680Z,2.67
2024-02-21T16:01:14.311Z,2.92
2024-02-21T16:03:41.766Z,2.95
2024-02-21T16:06:08.472Z,3.03
2024-02-21T16:08:34.891Z,2.50
2024-02-21T16:11:01.594Z,3.75
2024-02-21T16:13:28.275Z,2.20
2024-02-21T16:15:54.692Z,3.20
2024-02-21T16:18:21.276Z,2.55
2024-02-21T16:20:48.184Z,2.35
2024-02-21T16:23:15.304Z,2.17
2024-02-21T16:25:42.068Z,2.25
2024-02-21T16:28:08.420Z,3.72
2024-02-21T16:30:34.977Z,2.28
2024-02-21T16:33:01.633Z,2.65
2024-02-21T16:35:28.089Z,2.20
2024-02-21T16:37:55.096Z,3.05
2024-02-21T16:40:21.750Z,2.05
2024-02-21T16:42:48.169Z,2.42
2024-02-21T16:45:16.261Z,1.98
2024-02-21T16:47:42.706Z,2.40
2024-02-21T16:50:09.713Z,2.85
2024-02-21T16:52:37.627Z,2.30
2024-02-21T16:55:04.776Z,3.10
2024-02-21T16:57:31.320Z,2.15
2024-02-21T16:59:57.626Z,2.35
2024-02-21T17:02:24.787Z,2.30
2024-02-21T17:04:51.905Z,2.30
2024-02-21T17:07:18.824Z,1.85
2024-02-21T17:09:45.129Z,2.08
2024-02-21T17:12:11.643Z,3.50
2024-02-21T17:14:37.925Z,2.45
2024-02-21T17:17:04.695Z,3.03
2024-02-21T17:19:31.436Z,2.65
2024-02-21T17:21:57.881Z,2.65
2024-02-21T17:24:24.180Z,2.15
2024-02-21T17:26:50.750Z,2.10
2024-02-21T17:29:17.392Z,2.35
2024-02-21T17:31:43.755Z,2.35
2024-02-21T17:34:10.126Z,3.17
2024-02-21T17:36:36.678Z,1.65
2024-02-21T17:39:03.221Z,3.30
2024-02-21T17:41:29.727Z,2.40
2024-02-21T17:43:56.309Z,2.45
2024-02-21T17:46:22.688Z,2.05
2024-02-21T17:48:49.724Z,2.60
2024-02-21T17:51:16.287Z,3.30
2024-02-21T17:53:42.636Z,2.20
2024-02-21T17:56:09.424Z,2.42
2024-02-21T17:58:37.055Z,1.95
2024-02-21T18:01:03.808Z,2.85
2024-02-21T18:03:30.706Z,3.67
2024-02-21T18:06:00.491Z,2.60
2024-02-21T18:08:27.199Z,2.67
2024-02-21T18:10:53.902Z,2.13
2024-02-21T18:13:20.958Z,1.88
2024-02-21T18:15:47.285Z,3.22
2024-02-21T18:18:13.859Z,3.85
2024-02-21T18:20:40.812Z,2.90
2024-02-21T18:23:07.484Z,2.92
2024-02-21T18:25:34.180Z,2.60
2024-02-21T18:28:00.631Z,3.35
2024-02-21T18:30:27.181Z,2.08
2024-02-21T18:32:54.158Z,2.78
2024-02-21T18:35:20.641Z,3.03
2024-02-21T18:37:47.098Z,2.47
2024-02-21T18:40:13.692Z,3.25
2024-02-21T18:42:40.545Z,2.30
2024-02-21T18:45:07.392Z,3.92
2024-02-21T18:47:34.182Z,3.15
2024-02-21T18:50:00.655Z,2.78
2024-02-21T18:52:27.430Z,2.55
2024-02-21T18:54:54.159Z,3.55
2024-02-21T18:57:20.441Z,3.10
2024-02-21T18:59:46.983Z,3.33
2024-02-21T19:02:13.669Z,6.88
2024-02-21T19:04:40.407Z,2.97
2024-02-21T19:07:07.035Z,3.00
2024-02-21T19:09:33.378Z,2.55
2024-02-21T19:12:00.113Z,3.15
2024-02-21T19:14:26.520Z,3.05
2024-02-21T19:16:53.113Z,2.38
2024-02-21T19:19:19.742Z,3.38
2024-02-21T19:21:46.258Z,3.10
2024-02-21T19:24:12.852Z,3.65
2024-02-21T19:26:39.405Z,3.05
2024-02-21T19:29:06.045Z,3.15
2024-02-21T19:31:32.424Z,2.70
2024-02-21T19:33:58.822Z,2.55
2024-02-21T19:36:25.533Z,3.45
2024-02-21T19:38:51.838Z,2.60
2024-02-21T19:41:18.706Z,3.83
2024-02-21T19:43:45.109Z,2.35
2024-02-21T19:46:11.474Z,3.22
2024-02-21T19:48:38.073Z,3.67
2024-02-21T19:51:04.691Z,3.10
2024-02-21T19:53:31.403Z,2.00
2024-02-21T19:55:58.001Z,3.10
2024-02-21T19:58:24.609Z,3.38
2024-02-21T20:00:51.351Z,3.20
2024-02-21T20:03:17.898Z,3.33
2024-02-21T20:05:45.097Z,3.35
2024-02-21T20:08:11.609Z,2.80
2024-02-21T20:10:38.175Z,2.83
2024-02-21T20:13:04.874Z,2.80
2024-02-21T20:15:31.409Z,3.65
2024-02-21T20:17:57.793Z,3.15
2024-02-21T20:20:24.160Z,3.97
2024-02-21T20:22:50.822Z,2.75
2024-02-21T20:25:17.209Z,3.08
2024-02-21T20:27:43.737Z,3.72
2024-02-21T20:30:10.427Z,3.10
2024-02-21T20:32:36.988Z,2.90
2024-02-21T20:35:03.632Z,3.50
2024-02-21T20:37:30.281Z,3.90
2024-02-21T20:39:56.853Z,3.33
2024-02-21T20:42:23.452Z,4.45
2024-02-21T20:44:50.170Z,3.67
2024-02-21T20:47:16.513Z,4.90
2024-02-21T20:49:43.012Z,2.88
2024-02-21T20:52:09.633Z,2.85
2024-02-21T20:54:35.919Z,3.58
2024-02-21T20:57:02.490Z,3.50
2024-02-21T20:59:29.077Z,4.63
2024-02-21T21:02:02.596Z,3.45
2024-02-21T21:04:30.489Z,4.35
2024-02-21T21:06:57.223Z,2.72
2024-02-21T21:09:23.812Z,3.83
2024-02-21T21:11:50.427Z,2.85
2024-02-21T21:14:17.107Z,3.05
2024-02-21T21:16:43.770Z,2.50
2024-02-21T21:19:10.388Z,3.03
2024-02-21T21:21:37.085Z,3.15
2024-02-21T21:24:03.807Z,2.83
2024-02-21T21:26:30.364Z,3.38
2024-02-21T21:28:56.958Z,2.67
2024-02-21T21:31:25.010Z,3.25
2024-02-21T21:33:51.456Z,3.17
2024-02-21T21:36:17.779Z,2.53
2024-02-21T21:38:44.288Z,3.80
2024-02-21T21:41:11.168Z,3.22
2024-02-21T21:43:37.544Z,2.75
2024-02-21T21:46:03.909Z,2.53
2024-02-21T21:48:30.329Z,5.10
2024-02-21T21:50:56.920Z,2.47
2024-02-21T21:53:23.181Z,3.47
2024-02-21T21:55:49.789Z,3.33
2024-02-21T21:58:16.323Z,2.92
2024-02-21T22:00:42.855Z,3.22
2024-02-21T22:03:09.407Z,3.20
2024-02-21T22:05:35.728Z,4.03
2024-02-21T22:08:02.293Z,4.50
2024-02-21T22:10:28.921Z,3.80
2024-02-21T22:12:56.070Z,2.70
2024-02-21T22:15:22.635Z,3.22
2024-02-21T22:17:49.266Z,2.63
2024-02-21T22:20:16.417Z,2.50
2024-02-21T22:22:42.828Z,3.80
2024-02-21T22:25:09.332Z,2.20
2024-02-21T22:27:35.608Z,2.35
2024-02-21T22:30:01.945Z,2.72
2024-02-21T22:32:28.504Z,2.40
2024-02-21T22:34:55.216Z,2.30
2024-02-21T22:37:21.873Z,2.13
2024-02-21T22:39:48.219Z,2.25
2024-02-21T22:42:14.756Z,2.65
2024-02-21T22:44:41.786Z,2.70
2024-02-21T22:47:08.124Z,1.95
2024-02-21T22:49:35.363Z,3.15
2024-02-21T22:52:01.683Z,2.20
2024-02-21T22:54:28.035Z,1.70
2024-02-21T22:56:54.600Z,1.60
2024-02-21T22:59:21.138Z,2.65
2024-02-21T23:01:47.511Z,3.40
2024-02-21T23:04:13.853Z,2.95
2024-02-21T23:06:40.135Z,2.47
2024-02-21T23:09:06.946Z,2.45
2024-02-21T23:11:33.482Z,1.92
2024-02-21T23:14:00.415Z,2.38
2024-02-21T23:16:26.998Z,2.13
2024-02-21T23:18:53.644Z,2.25
2024-02-21T23:21:20.226Z,2.05
2024-02-21T23:23:46.794Z,2.38
2024-02-21T23:26:13.516Z,2.60
2024-02-21T23:28:44.246Z,3.13
2024-02-21T23:31:11.511Z,2.40
2024-02-21T23:33:37.933Z,2.08
2024-02-21T23:36:04.676Z,1.85
2024-02-21T23:38:31.665Z,2.05
2024-02-21T23:40:58.289Z,2.58
2024-02-21T23:43:24.788Z,1.75
2024-02-21T23:45:51.065Z,2.53
2024-02-21T23:48:17.436Z,2.50
2024-02-21T23:50:43.761Z,2.33
2024-02-21T23:53:10.415Z,2.30
2024-02-21T23:55:37.105Z,1.85
2024-02-21T23:58:03.462Z,2.63
